createdAt,value
2019-01-21T00:01:01.565Z,93.06
2019-01-21T00:03:29.057Z,93.22
2019-01-21T00:05:56.636Z,93.37
2019-01-21T00:08:24.104Z,93.44
2019-01-21T00:10:51.676Z,93.66
2019-01-21T00:13:19.073Z,93.66
2019-01-21T00:15:46.761Z,94.59
2019-01-21T00:18:14.226Z,94.79
2019-01-21T00:20:41.669Z,94.58
2019-01-21T00:23:09.136Z,97.00
2019-01-21T00:25:36.652Z,95.94
2019-01-21T00:28:04.278Z,94.46
2019-01-21T00:30:31.762Z,94.72
2019-01-21T00:32:59.227Z,94.79
2019-01-21T00:35:26.706Z,94.36
2019-01-21T00:37:54.212Z,93.89
2019-01-21T00:40:22.248Z,94.26
2019-01-21T00:42:49.731Z,94.80
2019-01-21T00:45:17.300Z,95.46
2019-01-21T00:47:44.709Z,95.13
2019-01-21T00:50:12.493Z,95.74
2019-01-21T00:52:40.084Z,94.63
2019-01-21T00:55:08.246Z,94.70
2019-01-21T00:57:35.752Z,95.45
2019-01-21T01:00:05.987Z,95.65
2019-01-21T01:02:33.597Z,95.90
2019-01-21T01:05:01.198Z,94.53
2019-01-21T01:07:28.683Z,95.64
2019-01-21T01:09:56.156Z,95.42
2019-01-21T01:12:23.623Z,93.10
2019-01-21T01:14:51.061Z,92.08
2019-01-21T01:17:18.678Z,92.79
2019-01-21T01:19:46.182Z,92.72
2019-01-21T01:22:13.660Z,90.70
2019-01-21T01:24:41.145Z,89.76
2019-01-21T01:27:08.808Z,90.46
2019-01-21T01:29:36.218Z,90.29
2019-01-21T01:32:03.862Z,89.51
2019-01-21T01:34:31.378Z,91.06
2019-01-21T01:36:58.868Z,91.50
2019-01-21T01:39:26.768Z,92.31
2019-01-21T01:41:54.267Z,89.39
2019-01-21T01:44:21.870Z,89.00
2019-01-21T01:46:49.598Z,89.85
2019-01-21T01:49:17.193Z,91.12
2019-01-21T01:51:44.803Z,92.09
2019-01-21T01:54:12.419Z,93.40
2019-01-21T01:56:39.998Z,93.12
2019-01-21T01:59:08.203Z,92.81
2019-01-21T02:01:35.687Z,92.90
2019-01-21T02:04:03.553Z,93.11
2019-01-21T02:06:31.014Z,93.84
2019-01-21T02:08:58.601Z,92.81
2019-01-21T02:11:26.115Z,92.81
2019-01-21T02:13:54.021Z,92.57
2019-01-21T02:16:21.498Z,93.88
2019-01-21T02:18:49.119Z,93.59
2019-01-21T02:21:17.309Z,94.19
2019-01-21T02:23:49.222Z,94.39
2019-01-21T02:26:21.142Z,94.89
2019-01-21T02:29:05.096Z,95.24
2019-01-21T02:32:15.886Z,93.95
2019-01-21T02:34:57.866Z,90.09
2019-01-21T02:37:48.318Z,92.67
2019-01-21T02:40:58.232Z,91.93
2019-01-21T02:44:00.861Z,90.56
2019-01-21T02:46:42.061Z,92.50
2019-01-21T02:49:57.462Z,92.50
2019-01-21T02:53:19.175Z,93.05
2019-01-21T02:56:31.476Z,93.30
2019-01-21T02:59:47.479Z,90.97
2019-01-21T03:02:57.477Z,91.88
2019-01-21T03:06:02.106Z,91.58
2019-01-21T03:09:02.743Z,92.50
2019-01-21T03:11:48.453Z,93.03
2019-01-21T03:14:40.667Z,93.71
2019-01-21T03:17:59.135Z,94.55
2019-01-21T03:21:05.192Z,94.65
2019-01-21T03:24:32.876Z,95.36
2019-01-21T03:27:40.034Z,95.91
2019-01-21T03:30:31.496Z,95.58
2019-01-21T03:33:37.740Z,95.34
2019-01-21T03:36:27.210Z,95.59
2019-01-21T03:40:03.602Z,96.19
2019-01-21T03:43:18.817Z,96.76
2019-01-21T03:46:10.757Z,97.99
2019-01-21T03:49:10.723Z,98.50
2019-01-21T03:52:16.759Z,97.28
2019-01-21T03:54:51.971Z,96.62
2019-01-21T03:57:41.584Z,97.45
2019-01-21T04:00:40.846Z,97.83
2019-01-21T04:03:55.207Z,97.80
2019-01-21T04:06:34.240Z,98.36
2019-01-21T04:09:28.471Z,96.65
2019-01-21T04:12:55.593Z,96.00
2019-01-21T04:16:10.783Z,91.77
2019-01-21T04:19:20.146Z,92.48
2019-01-21T04:22:02.436Z,93.41
2019-01-21T04:25:14.654Z,96.04
2019-01-21T04:28:22.171Z,96.81
2019-01-21T04:32:01.788Z,94.82
2019-01-21T04:35:15.852Z,93.39
2019-01-21T04:38:46.269Z,94.32
2019-01-21T04:41:30.648Z,95.11
2019-01-21T04:44:52.663Z,96.10
2019-01-21T04:47:51.321Z,96.90
2019-01-21T04:51:06.585Z,98.04
2019-01-21T04:54:31.346Z,95.13
2019-01-21T04:57:29.625Z,95.53
2019-01-21T05:00:21.254Z,96.37
2019-01-21T05:03:22.074Z,95.47
2019-01-21T05:06:46.553Z,95.80
2019-01-21T05:10:08.187Z,97.25
2019-01-21T05:13:12.711Z,96.54
2019-01-21T05:16:08.420Z,96.10
2019-01-21T05:19:11.308Z,96.99
2019-01-21T05:22:09.549Z,95.69
2019-01-21T05:25:02.061Z,95.98
2019-01-21T05:28:10.715Z,95.03
2019-01-21T05:31:19.810Z,93.66
2019-01-21T05:34:39.978Z,94.55
2019-01-21T05:37:39.966Z,94.99
2019-01-21T05:40:42.924Z,94.50
2019-01-21T05:43:44.444Z,92.92
2019-01-21T05:46:46.118Z,90.79
2019-01-21T05:49:57.625Z,91.18
2019-01-21T05:53:18.157Z,89.65
2019-01-21T05:56:25.423Z,85.56
2019-01-21T05:59:39.204Z,83.95
2019-01-21T06:02:44.288Z,84.89
2019-01-21T06:05:30.013Z,86.83
2019-01-21T06:08:50.855Z,88.19
2019-01-21T06:12:03.221Z,89.34
2019-01-21T06:15:15.603Z,90.37
2019-01-21T06:18:14.434Z,90.63
2019-01-21T06:21:35.555Z,90.83
2019-01-21T06:24:29.113Z,91.60
2019-01-21T06:27:38.394Z,92.25
2019-01-21T06:30:42.346Z,92.24
2019-01-21T06:33:53.301Z,92.34
2019-01-21T06:36:30.640Z,92.65
2019-01-21T06:39:51.598Z,92.70
2019-01-21T06:43:21.977Z,92.59
2019-01-21T06:46:55.237Z,92.81
2019-01-21T06:49:49.405Z,92.71
2019-01-21T06:52:58.056Z,92.73
2019-01-21T06:56:02.389Z,92.89
2019-01-21T06:59:10.085Z,92.52
2019-01-21T07:01:59.855Z,92.25
2019-01-21T07:04:57.300Z,90.62
2019-01-21T07:07:51.154Z,89.97
2019-01-21T07:11:12.381Z,88.63
2019-01-21T07:14:05.411Z,88.67
2019-01-21T07:17:27.960Z,88.24
2019-01-21T07:20:33.135Z,88.73
2019-01-21T07:23:23.835Z,85.59
2019-01-21T07:26:47.347Z,86.29
2019-01-21T07:29:58.006Z,84.47
2019-01-21T07:32:59.998Z,85.07
2019-01-21T07:36:06.905Z,86.45
2019-01-21T07:39:01.047Z,86.98
2019-01-21T07:42:22.835Z,85.35
2019-01-21T07:45:27.224Z,85.71
2019-01-21T07:48:37.232Z,84.96
2019-01-21T07:51:55.357Z,85.36
2019-01-21T07:55:07.448Z,85.44
2019-01-21T07:58:22.628Z,84.33
2019-01-21T08:01:14.530Z,84.59
2019-01-21T08:04:41.858Z,83.27
2019-01-21T08:07:33.144Z,82.81
2019-01-21T08:10:46.609Z,82.28
2019-01-21T08:14:04.504Z,83.36
2019-01-21T08:17:01.849Z,82.74
2019-01-21T08:19:53.769Z,80.43
2019-01-21T08:22:55.673Z,80.67
2019-01-21T08:26:04.795Z,82.04
2019-01-21T08:29:13.709Z,81.14
2019-01-21T08:32:30.651Z,81.77
2019-01-21T08:35:30.467Z,82.37
2019-01-21T08:38:25.417Z,81.40
2019-01-21T08:41:40.984Z,81.03
2019-01-21T08:45:02.735Z,81.68
2019-01-21T08:48:07.957Z,82.45
2019-01-21T08:51:16.222Z,82.93
2019-01-21T08:54:17.154Z,83.75
2019-01-21T08:57:22.586Z,84.44
2019-01-21T09:00:23.037Z,83.73
2019-01-21T09:03:15.219Z,83.51
2019-01-21T09:06:14.177Z,82.48
2019-01-21T09:09:27.821Z,81.57
2019-01-21T09:12:21.947Z,81.21
2019-01-21T09:15:18.885Z,83.88
2019-01-21T09:18:13.656Z,83.16
2019-01-21T09:21:25.809Z,82.15
2019-01-21T09:24:44.050Z,80.42
2019-01-21T09:27:52.653Z,79.92
2019-01-21T09:30:55.359Z,78.96
2019-01-21T09:34:03.356Z,77.22
2019-01-21T09:37:01.470Z,77.67
2019-01-21T09:40:22.112Z,78.94
2019-01-21T09:43:42.600Z,78.64
2019-01-21T09:46:38.529Z,76.98
2019-01-21T09:49:04.975Z,78.44
2019-01-21T09:51:33.295Z,78.63
2019-01-21T09:54:04.481Z,78.88
2019-01-21T09:56:32.306Z,78.86
2019-01-21T09:59:00.100Z,76.34
2019-01-21T10:01:28.596Z,79.16
2019-01-21T10:03:56.888Z,76.57
2019-01-21T10:06:34.573Z,77.50
2019-01-21T10:09:39.785Z,76.79
2019-01-21T10:12:36.421Z,74.79
2019-01-21T10:15:25.223Z,78.53
2019-01-21T10:18:45.868Z,79.12
2019-01-21T10:21:41.528Z,78.78
2019-01-21T10:24:20.949Z,78.99
2019-01-21T10:27:45.208Z,76.96
2019-01-21T10:30:23.447Z,76.35
2019-01-21T10:33:35.609Z,76.95
2019-01-21T10:36:28.856Z,76.29
2019-01-21T10:39:43.240Z,75.84
2019-01-21T10:42:36.514Z,74.86
2019-01-21T10:45:23.190Z,78.10
2019-01-21T10:48:22.773Z,77.07
2019-01-21T10:51:13.775Z,78.75
2019-01-21T10:54:24.683Z,76.58
2019-01-21T10:57:12.156Z,76.34
2019-01-21T11:00:42.753Z,76.41
2019-01-21T11:03:32.734Z,76.50
2019-01-21T11:06:38.009Z,75.73
2019-01-21T11:09:39.481Z,72.90
2019-01-21T11:12:57.402Z,73.55
2019-01-21T11:15:30.357Z,72.66
2019-01-21T11:18:06.613Z,71.25
2019-01-21T11:21:06.792Z,74.78
2019-01-21T11:23:55.987Z,74.89
2019-01-21T11:26:41.958Z,73.17
2019-01-21T11:30:05.348Z,72.63
2019-01-21T11:33:16.372Z,71.46
2019-01-21T11:36:28.583Z,71.84
2019-01-21T11:39:36.071Z,72.23
2019-01-21T11:42:36.210Z,70.75
2019-01-21T11:45:48.704Z,69.96
2019-01-21T11:49:02.456Z,70.32
2019-01-21T11:51:55.995Z,69.52
2019-01-21T11:55:14.744Z,70.38
2019-01-21T11:58:14.140Z,71.15
2019-01-21T12:01:23.981Z,69.42
2019-01-21T12:04:16.268Z,71.22
2019-01-21T12:07:09.424Z,74.00
2019-01-21T12:10:24.358Z,73.11
2019-01-21T12:13:15.320Z,70.31
2019-01-21T12:16:19.906Z,72.23
2019-01-21T12:19:11.214Z,72.00
2019-01-21T12:22:29.064Z,71.92
2019-01-21T12:25:15.920Z,70.82
2019-01-21T12:28:12.071Z,70.81
2019-01-21T12:30:54.515Z,70.08
2019-01-21T12:33:58.680Z,69.13
2019-01-21T12:36:54.898Z,69.37
2019-01-21T12:40:00.086Z,71.87
2019-01-21T12:42:43.975Z,67.98
2019-01-21T12:45:41.710Z,67.79
2019-01-21T12:48:59.136Z,69.54
2019-01-21T12:52:08.009Z,66.79
2019-01-21T12:55:25.422Z,65.47
2019-01-21T12:58:40.513Z,68.68
2019-01-21T13:02:04.041Z,68.78
2019-01-21T13:05:12.654Z,69.58
2019-01-21T13:08:22.552Z,68.67
2019-01-21T13:11:10.566Z,70.66
2019-01-21T13:14:22.824Z,68.97
2019-01-21T13:17:45.916Z,69.07
2019-01-21T13:20:42.465Z,71.23
2019-01-21T13:23:37.262Z,70.17
2019-01-21T13:26:41.036Z,68.51
2019-01-21T13:29:34.941Z,68.08
2019-01-21T13:32:31.323Z,69.65
2019-01-21T13:35:24.277Z,69.56
2019-01-21T13:38:29.425Z,70.89
2019-01-21T13:41:47.795Z,72.23
2019-01-21T13:44:35.734Z,74.48
2019-01-21T13:47:44.161Z,73.02
2019-01-21T13:50:37.279Z,75.29
2019-01-21T13:53:55.235Z,77.05
2019-01-21T13:56:56.854Z,75.70
2019-01-21T14:00:14.732Z,74.60
2019-01-21T14:03:03.368Z,75.64
2019-01-21T14:06:02.483Z,76.75
2019-01-21T14:09:23.415Z,78.50
2019-01-21T14:12:19.983Z,79.57
2019-01-21T14:15:27.714Z,77.84
2019-01-21T14:18:32.497Z,75.69
2019-01-21T14:21:24.518Z,76.62
2019-01-21T14:24:17.547Z,77.38
2019-01-21T14:27:02.237Z,78.85
2019-01-21T14:29:44.806Z,78.30
2019-01-21T14:32:52.987Z,78.03
2019-01-21T14:35:36.519Z,77.38
2019-01-21T14:38:47.196Z,79.18
2019-01-21T14:41:40.368Z,78.98
2019-01-21T14:44:50.904Z,77.75
2019-01-21T14:48:09.174Z,78.21
2019-01-21T14:51:04.333Z,78.73
2019-01-21T14:54:10.802Z,79.67
2019-01-21T14:56:50.979Z,81.72
2019-01-21T14:59:46.431Z,81.48
2019-01-21T15:03:01.615Z,84.65
2019-01-21T15:06:29.136Z,80.11
2019-01-21T15:09:05.964Z,78.54
2019-01-21T15:12:33.300Z,77.11
2019-01-21T15:15:27.571Z,77.13
2019-01-21T15:18:48.447Z,77.62
2019-01-21T15:21:48.805Z,78.10
2019-01-21T15:24:42.924Z,78.74
2019-01-21T15:27:49.811Z,82.31
2019-01-21T15:30:43.382Z,80.08
2019-01-21T15:33:35.343Z,79.04
2019-01-21T15:36:36.573Z,80.32
2019-01-21T15:39:37.673Z,79.88
2019-01-21T15:42:42.365Z,80.21
2019-01-21T15:45:50.759Z,80.66
2019-01-21T15:48:31.372Z,81.25
2019-01-21T15:51:31.912Z,81.38
2019-01-21T15:54:16.215Z,81.77
2019-01-21T15:57:30.092Z,82.47
2019-01-21T16:00:45.094Z,82.78
2019-01-21T16:03:43.240Z,81.85
2019-01-21T16:06:41.948Z,82.85
2019-01-21T16:09:46.805Z,82.16
2019-01-21T16:12:45.963Z,81.82
2019-01-21T16:15:38.321Z,82.33
2019-01-21T16:18:25.958Z,82.07
2019-01-21T16:21:37.296Z,83.50
2019-01-21T16:24:26.116Z,82.19
2019-01-21T16:27:03.577Z,83.24
2019-01-21T16:29:39.251Z,81.67
2019-01-21T16:32:40.700Z,82.58
2019-01-21T16:35:34.332Z,83.40
2019-01-21T16:38:23.067Z,82.85
2019-01-21T16:41:24.862Z,84.84
2019-01-21T16:43:52.934Z,85.47
2019-01-21T16:46:20.719Z,86.28
2019-01-21T16:48:48.210Z,83.71
2019-01-21T16:51:20.153Z,82.79
2019-01-21T16:53:45.428Z,83.66
2019-01-21T16:56:13.132Z,83.04
2019-01-21T16:58:40.943Z,85.17
2019-01-21T17:01:08.670Z,86.88
2019-01-21T17:03:36.324Z,85.72
2019-01-21T17:06:04.327Z,84.28
2019-01-21T17:08:31.877Z,85.00
2019-01-21T17:10:59.317Z,85.64
2019-01-21T17:13:26.925Z,81.90
2019-01-21T17:15:54.738Z,79.33
2019-01-21T17:18:22.474Z,78.92
2019-01-21T17:20:50.322Z,79.22
2019-01-21T17:23:18.428Z,79.86
2019-01-21T17:25:46.165Z,80.84
2019-01-21T17:28:14.084Z,83.17
2019-01-21T17:30:41.765Z,81.98
2019-01-21T17:33:09.521Z,82.26
2019-01-21T17:35:37.297Z,82.52
2019-01-21T17:38:05.024Z,83.29
2019-01-21T17:40:32.858Z,84.10
2019-01-21T17:43:00.599Z,83.61
2019-01-21T17:45:28.163Z,84.73
2019-01-21T17:47:55.904Z,87.17
2019-01-21T17:50:23.602Z,83.83
2019-01-21T17:52:51.223Z,82.85
2019-01-21T17:55:18.953Z,83.55
2019-01-21T17:57:46.678Z,84.34
2019-01-21T18:00:19.939Z,84.55
2019-01-21T18:02:47.839Z,85.33
2019-01-21T18:05:16.520Z,85.96
2019-01-21T18:07:44.400Z,86.75
2019-01-21T18:10:13.770Z,86.73
2019-01-21T18:12:42.144Z,86.30
2019-01-21T18:15:10.740Z,86.42
2019-01-21T18:17:38.459Z,86.37
2019-01-21T18:20:13.323Z,86.07
2019-01-21T18:22:40.972Z,86.39
2019-01-21T18:25:09.717Z,86.86
2019-01-21T18:27:37.243Z,87.37
2019-01-21T18:30:08.246Z,87.38
2019-01-21T18:32:35.902Z,87.59
2019-01-21T18:35:04.589Z,87.24
2019-01-21T18:37:32.079Z,87.76
2019-01-21T18:39:59.888Z,87.78
2019-01-21T18:42:27.717Z,87.96
2019-01-21T18:44:55.663Z,87.58
2019-01-21T18:47:23.330Z,87.47
2019-01-21T18:49:51.067Z,87.21
2019-01-21T18:52:18.858Z,86.77
2019-01-21T18:54:46.451Z,87.29
2019-01-21T18:57:15.281Z,87.07
2019-01-21T18:59:43.134Z,87.68
2019-01-21T19:02:10.552Z,87.05
2019-01-21T19:04:38.259Z,86.85
2019-01-21T19:07:05.959Z,87.24
2019-01-21T19:09:33.610Z,86.94
2019-01-21T19:12:01.169Z,87.74
2019-01-21T19:14:29.101Z,87.52
2019-01-21T19:16:56.625Z,86.64
2019-01-21T19:19:24.426Z,87.08
2019-01-21T19:21:53.703Z,86.31
2019-01-21T19:24:21.495Z,87.85
2019-01-21T19:26:49.529Z,85.96
2019-01-21T19:29:17.358Z,86.37
2019-01-21T19:31:45.050Z,86.87
2019-01-21T19:34:12.745Z,87.56
2019-01-21T19:36:40.389Z,86.95
2019-01-21T19:39:08.965Z,87.19
2019-01-21T19:41:36.725Z,87.20
2019-01-21T19:44:04.800Z,87.08
2019-01-21T19:46:32.465Z,87.37
2019-01-21T19:49:00.282Z,87.67
2019-01-21T19:51:28.162Z,88.31
2019-01-21T19:53:55.744Z,88.14
2019-01-21T19:56:23.646Z,88.41
2019-01-21T19:58:51.642Z,89.04
2019-01-21T20:01:19.444Z,89.35
2019-01-21T20:03:47.071Z,88.83
2019-01-21T20:06:15.326Z,88.85
2019-01-21T20:09:00.588Z,87.52
2019-01-21T20:11:34.812Z,86.09
2019-01-21T20:14:06.103Z,85.40
2019-01-21T20:16:38.275Z,85.61
2019-01-21T20:19:06.406Z,85.89
2019-01-21T20:21:37.380Z,85.99
2019-01-21T20:24:05.892Z,86.68
2019-01-21T20:26:33.474Z,86.72
2019-01-21T20:29:00.954Z,87.20
2019-01-21T20:31:28.598Z,86.91
2019-01-21T20:33:56.120Z,86.34
2019-01-21T20:36:23.782Z,86.21
2019-01-21T20:38:51.393Z,87.05
2019-01-21T20:41:18.967Z,86.67
2019-01-21T20:43:46.612Z,86.84
2019-01-21T20:46:14.406Z,87.39
2019-01-21T20:48:42.163Z,86.69
2019-01-21T20:51:09.985Z,84.99
2019-01-21T20:53:37.508Z,84.93
2019-01-21T20:56:05.168Z,85.81
2019-01-21T20:58:32.835Z,86.07
2019-01-21T21:01:00.614Z,87.01
2019-01-21T21:03:28.132Z,87.35
2019-01-21T21:05:55.692Z,87.36
2019-01-21T21:08:23.256Z,88.09
2019-01-21T21:10:50.601Z,87.94
2019-01-21T21:13:18.056Z,88.01
2019-01-21T21:15:45.603Z,88.23
2019-01-21T21:18:13.006Z,88.05
2019-01-21T21:20:53.550Z,87.54
2019-01-21T21:23:20.987Z,87.68
2019-01-21T21:25:48.482Z,88.62
2019-01-21T21:28:15.881Z,89.31
2019-01-21T21:30:43.393Z,89.20
2019-01-21T21:33:11.545Z,89.03
2019-01-21T21:35:39.086Z,89.20
2019-01-21T21:38:06.515Z,89.51
2019-01-21T21:40:34.003Z,89.53
2019-01-21T21:43:01.427Z,90.48
2019-01-21T21:45:28.947Z,89.42
2019-01-21T21:48:00.832Z,89.76
2019-01-21T21:50:28.403Z,90.12
2019-01-21T21:52:55.855Z,89.63
2019-01-21T21:55:23.414Z,88.53
2019-01-21T21:57:51.060Z,88.36
2019-01-21T22:00:21.195Z,89.56
2019-01-21T22:02:48.814Z,89.33
2019-01-21T22:05:17.300Z,87.13
2019-01-21T22:07:45.105Z,87.96
2019-01-21T22:10:14.319Z,87.60
2019-01-21T22:12:41.891Z,88.33
2019-01-21T22:15:12.133Z,89.03
2019-01-21T22:17:39.765Z,90.17
2019-01-21T22:20:10.016Z,91.32
2019-01-21T22:22:37.434Z,89.99
2019-01-21T22:25:05.554Z,89.84
2019-01-21T22:27:33.535Z,89.75
2019-01-21T22:30:00.974Z,90.75
2019-01-21T22:32:28.464Z,88.79
2019-01-21T22:34:56.045Z,88.66
2019-01-21T22:37:23.566Z,90.04
2019-01-21T22:39:51.312Z,91.58
2019-01-21T22:42:18.997Z,91.88
2019-01-21T22:44:46.488Z,90.60
2019-01-21T22:47:13.984Z,90.23
2019-01-21T22:49:41.620Z,88.99
2019-01-21T22:52:09.082Z,88.29
2019-01-21T22:54:36.787Z,87.68
2019-01-21T22:57:04.757Z,88.70
2019-01-21T22:59:32.403Z,89.07
2019-01-21T23:02:00.124Z,88.12
2019-01-21T23:04:27.911Z,86.66
2019-01-21T23:06:55.390Z,86.34
2019-01-21T23:09:22.962Z,86.50
2019-01-21T23:11:50.522Z,86.25
2019-01-21T23:14:18.148Z,86.44
2019-01-21T23:16:45.638Z,86.84
2019-01-21T23:19:13.115Z,87.16
2019-01-21T23:21:40.612Z,87.22
2019-01-21T23:24:08.109Z,86.12
2019-01-21T23:26:35.603Z,86.12
2019-01-21T23:29:03.421Z,87.91
2019-01-21T23:31:30.862Z,87.51
2019-01-21T23:33:58.421Z,88.37
2019-01-21T23:36:25.869Z,88.59
2019-01-21T23:38:53.317Z,88.68
2019-01-21T23:41:20.801Z,88.90
2019-01-21T23:43:48.281Z,89.61
2019-01-21T23:46:16.044Z,89.85
2019-01-21T23:48:43.539Z,90.67
2019-01-21T23:51:11.002Z,90.35
2019-01-21T23:53:38.513Z,90.22
2019-01-21T23:56:06.295Z,91.15
2019-01-21T23:58:33.837Z,91.08
